sensor_id;sensor_type;location;lat;lon;timestamp;P1;durP1;ratioP1;P2;durP2;ratioP2
17725;SDS011;8983;53.156;17.960;2023-03-24T00:01:08;61.10;;;28.40;;
17725;SDS011;8983;53.156;17.960;2023-03-24T00:03:36;52.77;;;26.27;;
17725;SDS011;8983;53.156;17.960;2023-03-24T00:06:05;76.83;;;26.17;;
17725;SDS011;8983;53.156;17.960;2023-03-24T00:08:35;57.77;;;25.33;;
17725;SDS011;8983;53.156;17.960;2023-03-24T00:11:04;45.43;;;23.53;;
17725;SDS011;8983;53.156;17.960;2023-03-24T00:13:34;44.43;;;22.63;;
17725;SDS011;8983;53.156;17.960;2023-03-24T00:16:04;60.33;;;21.10;;
17725;SDS011;8983;53.156;17.960;2023-03-24T00:18:33;51.87;;;22.13;;
17725;SDS011;8983;53.156;17.960;2023-03-24T00:21:02;52.67;;;22.77;;
17725;SDS011;8983;53.156;17.960;2023-03-24T00:23:32;44.20;;;21.93;;
17725;SDS011;8983;53.156;17.960;2023-03-24T00:26:01;89.60;;;22.17;;
17725;SDS011;8983;53.156;17.960;2023-03-24T00:28:31;45.27;;;21.53;;
17725;SDS011;8983;53.156;17.960;2023-03-24T00:31:02;48.10;;;23.50;;
17725;SDS011;8983;53.156;17.960;2023-03-24T00:33:31;48.23;;;24.10;;
17725;SDS011;8983;53.156;17.960;2023-03-24T00:36:00;55.97;;;24.90;;
17725;SDS011;8983;53.156;17.960;2023-03-24T00:38:29;46.70;;;22.77;;
17725;SDS011;8983;53.156;17.960;2023-03-24T00:40:57;46.47;;;21.00;;
17725;SDS011;8983;53.156;17.960;2023-03-24T00:43:25;38.43;;;19.63;;
17725;SDS011;8983;53.156;17.960;2023-03-24T00:45:56;39.03;;;18.60;;
17725;SDS011;8983;53.156;17.960;2023-03-24T00:48:29;45.13;;;17.13;;
17725;SDS011;8983;53.156;17.960;2023-03-24T00:50:59;27.83;;;14.67;;
17725;SDS011;8983;53.156;17.960;2023-03-24T00:53:29;32.40;;;15.97;;
17725;SDS011;8983;53.156;17.960;2023-03-24T00:55:57;42.37;;;17.63;;
17725;SDS011;8983;53.156;17.960;2023-03-24T00:58:25;51.53;;;17.63;;
17725;SDS011;8983;53.156;17.960;2023-03-24T01:00:55;53.93;;;17.67;;
17725;SDS011;8983;53.156;17.960;2023-03-24T01:03:24;103.17;;;17.93;;
17725;SDS011;8983;53.156;17.960;2023-03-24T01:05:58;108.60;;;18.60;;
17725;SDS011;8983;53.156;17.960;2023-03-24T01:08:29;79.53;;;20.27;;
17725;SDS011;8983;53.156;17.960;2023-03-24T01:10:58;93.00;;;22.93;;
17725;SDS011;8983;53.156;17.960;2023-03-24T01:13:27;73.80;;;21.87;;
17725;SDS011;8983;53.156;17.960;2023-03-24T01:15:56;75.73;;;19.87;;
17725;SDS011;8983;53.156;17.960;2023-03-24T01:18:24;89.83;;;19.53;;
17725;SDS011;8983;53.156;17.960;2023-03-24T01:20:54;65.20;;;17.40;;
17725;SDS011;8983;53.156;17.960;2023-03-24T01:23:24;71.77;;;18.17;;
17725;SDS011;8983;53.156;17.960;2023-03-24T01:25:52;82.47;;;18.03;;
17725;SDS011;8983;53.156;17.960;2023-03-24T01:28:21;46.30;;;18.20;;
17725;SDS011;8983;53.156;17.960;2023-03-24T01:30:51;44.37;;;17.90;;
17725;SDS011;8983;53.156;17.960;2023-03-24T01:33:20;40.00;;;16.80;;
17725;SDS011;8983;53.156;17.960;2023-03-24T01:35:48;27.70;;;15.77;;
17725;SDS011;8983;53.156;17.960;2023-03-24T01:38:18;33.97;;;18.23;;
17725;SDS011;8983;53.156;17.960;2023-03-24T01:40:46;40.83;;;17.77;;
17725;SDS011;8983;53.156;17.960;2023-03-24T01:43:16;52.17;;;18.77;;
17725;SDS011;8983;53.156;17.960;2023-03-24T01:45:53;32.33;;;18.53;;
17725;SDS011;8983;53.156;17.960;2023-03-24T01:48:25;29.27;;;17.03;;
17725;SDS011;8983;53.156;17.960;2023-03-24T01:50:57;28.80;;;16.20;;
17725;SDS011;8983;53.156;17.960;2023-03-24T01:53:30;27.60;;;16.50;;
17725;SDS011;8983;53.156;17.960;2023-03-24T01:56:00;26.23;;;15.13;;
17725;SDS011;8983;53.156;17.960;2023-03-24T01:58:30;27.80;;;15.43;;
17725;SDS011;8983;53.156;17.960;2023-03-24T02:01:00;31.73;;;16.13;;
17725;SDS011;8983;53.156;17.960;2023-03-24T02:03:30;30.73;;;14.43;;
17725;SDS011;8983;53.156;17.960;2023-03-24T02:06:04;22.60;;;13.60;;
17725;SDS011;8983;53.156;17.960;2023-03-24T02:08:37;22.87;;;13.63;;
17725;SDS011;8983;53.156;17.960;2023-03-24T02:11:08;25.83;;;14.20;;
17725;SDS011;8983;53.156;17.960;2023-03-24T02:13:36;21.33;;;12.90;;
17725;SDS011;8983;53.156;17.960;2023-03-24T02:16:09;25.80;;;13.80;;
17725;SDS011;8983;53.156;17.960;2023-03-24T02:18:50;19.97;;;12.07;;
17725;SDS011;8983;53.156;17.960;2023-03-24T02:24:44;21.47;;;13.10;;
17725;SDS011;8983;53.156;17.960;2023-03-24T02:30:32;18.97;;;12.03;;
17725;SDS011;8983;53.156;17.960;2023-03-24T02:36:20;20.37;;;11.47;;
17725;SDS011;8983;53.156;17.960;2023-03-24T02:39:22;23.23;;;12.03;;
17725;SDS011;8983;53.156;17.960;2023-03-24T02:42:05;18.03;;;10.73;;
17725;SDS011;8983;53.156;17.960;2023-03-24T02:44:40;14.87;;;9.80;;
17725;SDS011;8983;53.156;17.960;2023-03-24T02:47:14;20.27;;;11.80;;
17725;SDS011;8983;53.156;17.960;2023-03-24T02:49:47;18.57;;;10.87;;
17725;SDS011;8983;53.156;17.960;2023-03-24T02:52:24;17.63;;;11.10;;
17725;SDS011;8983;53.156;17.960;2023-03-24T02:55:02;20.47;;;11.47;;
17725;SDS011;8983;53.156;17.960;2023-03-24T02:57:37;16.57;;;11.03;;
17725;SDS011;8983;53.156;17.960;2023-03-24T03:00:11;16.13;;;10.83;;
17725;SDS011;8983;53.156;17.960;2023-03-24T03:02:49;19.43;;;11.87;;
17725;SDS011;8983;53.156;17.960;2023-03-24T03:05:26;19.23;;;11.30;;
17725;SDS011;8983;53.156;17.960;2023-03-24T03:07:59;17.33;;;10.27;;
17725;SDS011;8983;53.156;17.960;2023-03-24T03:10:31;20.60;;;10.93;;
17725;SDS011;8983;53.156;17.960;2023-03-24T03:13:04;13.50;;;10.43;;
17725;SDS011;8983;53.156;17.960;2023-03-24T03:15:36;15.27;;;9.83;;
17725;SDS011;8983;53.156;17.960;2023-03-24T03:18:07;16.83;;;9.23;;
17725;SDS011;8983;53.156;17.960;2023-03-24T03:20:41;19.37;;;9.70;;
17725;SDS011;8983;53.156;17.960;2023-03-24T03:23:16;17.63;;;11.53;;
17725;SDS011;8983;53.156;17.960;2023-03-24T03:25:50;40.57;;;22.20;;
17725;SDS011;8983;53.156;17.960;2023-03-24T03:28:24;48.77;;;25.07;;
17725;SDS011;8983;53.156;17.960;2023-03-24T03:30:55;62.63;;;29.70;;
17725;SDS011;8983;53.156;17.960;2023-03-24T03:33:28;33.67;;;18.33;;
17725;SDS011;8983;53.156;17.960;2023-03-24T03:36:02;21.83;;;12.77;;
17725;SDS011;8983;53.156;17.960;2023-03-24T03:38:37;16.03;;;10.50;;
17725;SDS011;8983;53.156;17.960;2023-03-24T03:41:13;17.13;;;10.97;;
17725;SDS011;8983;53.156;17.960;2023-03-24T03:43:44;25.63;;;13.27;;
17725;SDS011;8983;53.156;17.960;2023-03-24T03:46:13;21.43;;;12.53;;
17725;SDS011;8983;53.156;17.960;2023-03-24T03:48:42;24.57;;;13.67;;
17725;SDS011;8983;53.156;17.960;2023-03-24T03:51:12;22.17;;;13.17;;
17725;SDS011;8983;53.156;17.960;2023-03-24T03:53:45;23.80;;;13.77;;
17725;SDS011;8983;53.156;17.960;2023-03-24T03:56:18;23.43;;;13.03;;
17725;SDS011;8983;53.156;17.960;2023-03-24T03:58:49;25.47;;;13.20;;
17725;SDS011;8983;53.156;17.960;2023-03-24T04:01:19;22.63;;;12.40;;
17725;SDS011;8983;53.156;17.960;2023-03-24T04:03:53;16.83;;;10.30;;
17725;SDS011;8983;53.156;17.960;2023-03-24T04:06:38;18.20;;;9.70;;
17725;SDS011;8983;53.156;17.960;2023-03-24T04:09:18;15.43;;;9.77;;
17725;SDS011;8983;53.156;17.960;2023-03-24T04:12:02;13.93;;;8.37;;
17725;SDS011;8983;53.156;17.960;2023-03-24T04:17:43;13.43;;;7.97;;
17725;SDS011;8983;53.156;17.960;2023-03-24T04:20:21;13.60;;;8.30;;
17725;SDS011;8983;53.156;17.960;2023-03-24T04:22:57;13.37;;;8.63;;
17725;SDS011;8983;53.156;17.960;2023-03-24T04:25:38;12.07;;;8.07;;
17725;SDS011;8983;53.156;17.960;2023-03-24T04:28:18;13.27;;;8.57;;
17725;SDS011;8983;53.156;17.960;2023-03-24T04:30:51;13.00;;;7.90;;
17725;SDS011;8983;53.156;17.960;2023-03-24T04:33:27;10.67;;;7.80;;
17725;SDS011;8983;53.156;17.960;2023-03-24T04:36:05;12.27;;;7.83;;
17725;SDS011;8983;53.156;17.960;2023-03-24T04:38:44;11.73;;;8.13;;
17725;SDS011;8983;53.156;17.960;2023-03-24T04:41:18;11.07;;;7.53;;
17725;SDS011;8983;53.156;17.960;2023-03-24T04:43:52;12.50;;;7.60;;
17725;SDS011;8983;53.156;17.960;2023-03-24T04:46:22;11.23;;;7.70;;
17725;SDS011;8983;53.156;17.960;2023-03-24T04:48:51;12.30;;;7.83;;
17725;SDS011;8983;53.156;17.960;2023-03-24T04:51:19;12.17;;;8.30;;
17725;SDS011;8983;53.156;17.960;2023-03-24T04:53:48;12.10;;;7.47;;
17725;SDS011;8983;53.156;17.960;2023-03-24T04:56:30;12.60;;;8.60;;
17725;SDS011;8983;53.156;17.960;2023-03-24T04:59:05;10.10;;;7.53;;
17725;SDS011;8983;53.156;17.960;2023-03-24T05:01:34;10.50;;;7.97;;
17725;SDS011;8983;53.156;17.960;2023-03-24T05:04:03;11.00;;;7.50;;
17725;SDS011;8983;53.156;17.960;2023-03-24T05:06:31;11.73;;;8.43;;
17725;SDS011;8983;53.156;17.960;2023-03-24T05:08:59;11.13;;;7.80;;
17725;SDS011;8983;53.156;17.960;2023-03-24T05:11:27;18.10;;;8.50;;
17725;SDS011;8983;53.156;17.960;2023-03-24T05:13:56;12.53;;;8.37;;
17725;SDS011;8983;53.156;17.960;2023-03-24T05:16:25;15.67;;;8.93;;
17725;SDS011;8983;53.156;17.960;2023-03-24T05:18:53;10.77;;;8.00;;
17725;SDS011;8983;53.156;17.960;2023-03-24T05:21:21;13.70;;;8.63;;
17725;SDS011;8983;53.156;17.960;2023-03-24T05:23:50;10.23;;;7.43;;
17725;SDS011;8983;53.156;17.960;2023-03-24T05:26:18;12.73;;;8.23;;
17725;SDS011;8983;53.156;17.960;2023-03-24T05:28:46;10.90;;;8.13;;
17725;SDS011;8983;53.156;17.960;2023-03-24T05:31:14;14.80;;;9.13;;
17725;SDS011;8983;53.156;17.960;2023-03-24T05:33:43;10.17;;;7.67;;
17725;SDS011;8983;53.156;17.960;2023-03-24T05:36:12;11.87;;;8.43;;
17725;SDS011;8983;53.156;17.960;2023-03-24T05:38:40;11.10;;;8.50;;
17725;SDS011;8983;53.156;17.960;2023-03-24T05:41:08;14.30;;;8.77;;
17725;SDS011;8983;53.156;17.960;2023-03-24T05:43:36;10.17;;;8.10;;
17725;SDS011;8983;53.156;17.960;2023-03-24T05:46:04;9.97;;;7.53;;
17725;SDS011;8983;53.156;17.960;2023-03-24T05:48:32;13.83;;;8.80;;
17725;SDS011;8983;53.156;17.960;2023-03-24T05:51:02;12.17;;;8.13;;
17725;SDS011;8983;53.156;17.960;2023-03-24T05:53:30;20.57;;;10.97;;
17725;SDS011;8983;53.156;17.960;2023-03-24T05:55:58;20.37;;;10.13;;
17725;SDS011;8983;53.156;17.960;2023-03-24T05:58:26;18.67;;;10.50;;
17725;SDS011;8983;53.156;17.960;2023-03-24T06:00:54;15.47;;;9.93;;
17725;SDS011;8983;53.156;17.960;2023-03-24T06:03:23;16.53;;;9.87;;
17725;SDS011;8983;53.156;17.960;2023-03-24T06:05:51;16.30;;;9.73;;
17725;SDS011;8983;53.156;17.960;2023-03-24T06:08:20;18.37;;;11.03;;
17725;SDS011;8983;53.156;17.960;2023-03-24T06:10:49;17.83;;;11.33;;
17725;SDS011;8983;53.156;17.960;2023-03-24T06:13:19;20.40;;;11.20;;
17725;SDS011;8983;53.156;17.960;2023-03-24T06:15:47;16.43;;;10.73;;
17725;SDS011;8983;53.156;17.960;2023-03-24T06:18:15;13.37;;;10.33;;
17725;SDS011;8983;53.156;17.960;2023-03-24T06:20:43;15.03;;;10.13;;
17725;SDS011;8983;53.156;17.960;2023-03-24T06:23:11;14.83;;;10.10;;
17725;SDS011;8983;53.156;17.960;2023-03-24T06:25:42;15.40;;;10.50;;
17725;SDS011;8983;53.156;17.960;2023-03-24T06:28:10;18.00;;;11.10;;
17725;SDS011;8983;53.156;17.960;2023-03-24T06:30:41;16.47;;;11.17;;
17725;SDS011;8983;53.156;17.960;2023-03-24T06:33:10;16.00;;;12.10;;
17725;SDS011;8983;53.156;17.960;2023-03-24T06:35:38;18.77;;;11.93;;
17725;SDS011;8983;53.156;17.960;2023-03-24T06:38:06;16.17;;;11.13;;
17725;SDS011;8983;53.156;17.960;2023-03-24T06:40:34;16.97;;;11.57;;
17725;SDS011;8983;53.156;17.960;2023-03-24T06:43:04;20.80;;;13.40;;
17725;SDS011;8983;53.156;17.960;2023-03-24T06:45:32;21.30;;;13.93;;
17725;SDS011;8983;53.156;17.960;2023-03-24T06:48:00;21.40;;;13.23;;
17725;SDS011;8983;53.156;17.960;2023-03-24T06:50:29;19.60;;;12.50;;
17725;SDS011;8983;53.156;17.960;2023-03-24T06:52:58;20.13;;;13.40;;
17725;SDS011;8983;53.156;17.960;2023-03-24T06:55:26;14.80;;;10.33;;
17725;SDS011;8983;53.156;17.960;2023-03-24T06:57:54;16.93;;;11.70;;
17725;SDS011;8983;53.156;17.960;2023-03-24T07:00:24;16.20;;;11.93;;
17725;SDS011;8983;53.156;17.960;2023-03-24T07:02:54;23.20;;;13.97;;
17725;SDS011;8983;53.156;17.960;2023-03-24T07:05:22;23.13;;;13.37;;
17725;SDS011;8983;53.156;17.960;2023-03-24T07:07:50;15.23;;;10.57;;
17725;SDS011;8983;53.156;17.960;2023-03-24T07:10:38;17.33;;;10.50;;
17725;SDS011;8983;53.156;17.960;2023-03-24T07:13:08;14.50;;;10.63;;
17725;SDS011;8983;53.156;17.960;2023-03-24T07:15:38;14.67;;;10.07;;
17725;SDS011;8983;53.156;17.960;2023-03-24T07:18:06;12.70;;;10.07;;
17725;SDS011;8983;53.156;17.960;2023-03-24T07:20:34;13.07;;;10.23;;
17725;SDS011;8983;53.156;17.960;2023-03-24T07:23:02;13.23;;;9.77;;
17725;SDS011;8983;53.156;17.960;2023-03-24T07:25:30;16.20;;;11.73;;
17725;SDS011;8983;53.156;17.960;2023-03-24T07:27:58;13.53;;;10.50;;
17725;SDS011;8983;53.156;17.960;2023-03-24T07:30:27;15.50;;;10.90;;
17725;SDS011;8983;53.156;17.960;2023-03-24T07:33:07;17.17;;;11.93;;
17725;SDS011;8983;53.156;17.960;2023-03-24T07:35:37;19.40;;;11.53;;
17725;SDS011;8983;53.156;17.960;2023-03-24T07:38:05;15.43;;;11.50;;
17725;SDS011;8983;53.156;17.960;2023-03-24T07:40:33;19.60;;;12.27;;
17725;SDS011;8983;53.156;17.960;2023-03-24T07:43:02;16.43;;;11.10;;
17725;SDS011;8983;53.156;17.960;2023-03-24T07:45:32;20.13;;;12.50;;
17725;SDS011;8983;53.156;17.960;2023-03-24T07:48:00;19.07;;;11.93;;
17725;SDS011;8983;53.156;17.960;2023-03-24T07:50:30;18.13;;;12.30;;
17725;SDS011;8983;53.156;17.960;2023-03-24T07:52:58;21.60;;;12.50;;
17725;SDS011;8983;53.156;17.960;2023-03-24T07:55:26;17.30;;;11.60;;
17725;SDS011;8983;53.156;17.960;2023-03-24T07:57:54;16.97;;;13.83;;
17725;SDS011;8983;53.156;17.960;2023-03-24T08:00:23;18.80;;;13.47;;
17725;SDS011;8983;53.156;17.960;2023-03-24T08:02:51;19.53;;;13.33;;
17725;SDS011;8983;53.156;17.960;2023-03-24T08:05:21;18.10;;;13.83;;
17725;SDS011;8983;53.156;17.960;2023-03-24T08:07:51;20.93;;;14.57;;
17725;SDS011;8983;53.156;17.960;2023-03-24T08:10:22;16.80;;;13.03;;
17725;SDS011;8983;53.156;17.960;2023-03-24T08:12:51;17.07;;;11.87;;
17725;SDS011;8983;53.156;17.960;2023-03-24T08:15:19;16.67;;;12.03;;
17725;SDS011;8983;53.156;17.960;2023-03-24T08:17:48;17.67;;;11.40;;
17725;SDS011;8983;53.156;17.960;2023-03-24T08:20:17;16.60;;;12.17;;
17725;SDS011;8983;53.156;17.960;2023-03-24T08:22:47;19.37;;;14.57;;
17725;SDS011;8983;53.156;17.960;2023-03-24T08:25:17;30.70;;;22.37;;
17725;SDS011;8983;53.156;17.960;2023-03-24T08:27:46;16.57;;;12.73;;
17725;SDS011;8983;53.156;17.960;2023-03-24T08:30:15;18.57;;;11.67;;
17725;SDS011;8983;53.156;17.960;2023-03-24T08:32:45;14.77;;;11.63;;
17725;SDS011;8983;53.156;17.960;2023-03-24T08:35:14;15.87;;;12.07;;
17725;SDS011;8983;53.156;17.960;2023-03-24T08:37:45;15.10;;;9.67;;
17725;SDS011;8983;53.156;17.960;2023-03-24T08:40:14;13.87;;;10.60;;
17725;SDS011;8983;53.156;17.960;2023-03-24T08:42:49;15.10;;;10.73;;
17725;SDS011;8983;53.156;17.960;2023-03-24T08:45:19;13.90;;;9.33;;
17725;SDS011;8983;53.156;17.960;2023-03-24T08:47:49;10.80;;;8.67;;
17725;SDS011;8983;53.156;17.960;2023-03-24T08:50:19;9.60;;;8.20;;
17725;SDS011;8983;53.156;17.960;2023-03-24T08:52:49;10.77;;;8.47;;
17725;SDS011;8983;53.156;17.960;2023-03-24T08:55:19;11.27;;;8.93;;
17725;SDS011;8983;53.156;17.960;2023-03-24T08:57:47;9.17;;;7.97;;
17725;SDS011;8983;53.156;17.960;2023-03-24T09:00:16;13.30;;;7.23;;
17725;SDS011;8983;53.156;17.960;2023-03-24T09:02:47;11.27;;;8.90;;
17725;SDS011;8983;53.156;17.960;2023-03-24T09:05:15;8.73;;;7.73;;
17725;SDS011;8983;53.156;17.960;2023-03-24T09:07:58;9.73;;;7.63;;
17725;SDS011;8983;53.156;17.960;2023-03-24T09:10:28;9.70;;;7.40;;
17725;SDS011;8983;53.156;17.960;2023-03-24T09:12:56;7.77;;;6.83;;
17725;SDS011;8983;53.156;17.960;2023-03-24T09:15:24;12.33;;;7.10;;
17725;SDS011;8983;53.156;17.960;2023-03-24T09:17:52;11.03;;;7.37;;
17725;SDS011;8983;53.156;17.960;2023-03-24T09:20:20;9.50;;;6.80;;
17725;SDS011;8983;53.156;17.960;2023-03-24T09:22:48;9.93;;;7.30;;
17725;SDS011;8983;53.156;17.960;2023-03-24T09:25:18;8.73;;;7.00;;
17725;SDS011;8983;53.156;17.960;2023-03-24T09:27:48;6.93;;;5.97;;
17725;SDS011;8983;53.156;17.960;2023-03-24T09:30:16;8.67;;;6.57;;
17725;SDS011;8983;53.156;17.960;2023-03-24T09:32:45;8.90;;;6.10;;
17725;SDS011;8983;53.156;17.960;2023-03-24T09:35:13;9.80;;;5.80;;
17725;SDS011;8983;53.156;17.960;2023-03-24T09:37:42;5.70;;;4.70;;
17725;SDS011;8983;53.156;17.960;2023-03-24T09:40:14;10.50;;;5.90;;
17725;SDS011;8983;53.156;17.960;2023-03-24T09:42:48;14.80;;;7.27;;
17725;SDS011;8983;53.156;17.960;2023-03-24T09:45:21;8.27;;;5.33;;
17725;SDS011;8983;53.156;17.960;2023-03-24T09:47:52;8.90;;;6.60;;
17725;SDS011;8983;53.156;17.960;2023-03-24T09:50:26;10.97;;;5.80;;
17725;SDS011;8983;53.156;17.960;2023-03-24T09:53:01;9.30;;;6.40;;
17725;SDS011;8983;53.156;17.960;2023-03-24T09:55:33;8.57;;;6.20;;
17725;SDS011;8983;53.156;17.960;2023-03-24T09:58:06;7.37;;;5.10;;
17725;SDS011;8983;53.156;17.960;2023-03-24T10:00:38;4.90;;;3.90;;
17725;SDS011;8983;53.156;17.960;2023-03-24T10:03:12;7.57;;;4.13;;
17725;SDS011;8983;53.156;17.960;2023-03-24T10:05:46;4.10;;;3.67;;
17725;SDS011;8983;53.156;17.960;2023-03-24T10:08:20;5.17;;;4.53;;
17725;SDS011;8983;53.156;17.960;2023-03-24T10:10:58;6.37;;;3.93;;
17725;SDS011;8983;53.156;17.960;2023-03-24T10:13:36;4.93;;;3.77;;
17725;SDS011;8983;53.156;17.960;2023-03-24T10:16:13;5.23;;;4.00;;
17725;SDS011;8983;53.156;17.960;2023-03-24T10:18:47;5.63;;;4.00;;
17725;SDS011;8983;53.156;17.960;2023-03-24T10:21:23;4.00;;;3.20;;
17725;SDS011;8983;53.156;17.960;2023-03-24T10:23:54;5.73;;;3.67;;
17725;SDS011;8983;53.156;17.960;2023-03-24T10:26:29;6.57;;;4.50;;
17725;SDS011;8983;53.156;17.960;2023-03-24T10:29:08;4.50;;;3.80;;
17725;SDS011;8983;53.156;17.960;2023-03-24T10:31:49;5.60;;;3.83;;
17725;SDS011;8983;53.156;17.960;2023-03-24T10:34:27;4.80;;;3.90;;
17725;SDS011;8983;53.156;17.960;2023-03-24T10:36:58;4.40;;;3.67;;
17725;SDS011;8983;53.156;17.960;2023-03-24T10:39:28;5.97;;;4.20;;
17725;SDS011;8983;53.156;17.960;2023-03-24T10:42:12;3.60;;;3.20;;
17725;SDS011;8983;53.156;17.960;2023-03-24T10:44:45;3.43;;;2.90;;
17725;SDS011;8983;53.156;17.960;2023-03-24T10:47:14;5.50;;;3.50;;
17725;SDS011;8983;53.156;17.960;2023-03-24T10:49:52;4.20;;;3.50;;
17725;SDS011;8983;53.156;17.960;2023-03-24T10:52:23;5.90;;;3.87;;
17725;SDS011;8983;53.156;17.960;2023-03-24T10:54:55;4.47;;;3.50;;
17725;SDS011;8983;53.156;17.960;2023-03-24T10:57:25;5.10;;;3.63;;
17725;SDS011;8983;53.156;17.960;2023-03-24T10:59:56;4.60;;;3.53;;
17725;SDS011;8983;53.156;17.960;2023-03-24T11:02:28;3.80;;;2.73;;
17725;SDS011;8983;53.156;17.960;2023-03-24T11:04:58;4.03;;;3.23;;
17725;SDS011;8983;53.156;17.960;2023-03-24T11:07:29;5.70;;;3.27;;
17725;SDS011;8983;53.156;17.960;2023-03-24T11:10:03;4.73;;;4.00;;
17725;SDS011;8983;53.156;17.960;2023-03-24T11:12:34;4.07;;;3.30;;
17725;SDS011;8983;53.156;17.960;2023-03-24T11:15:15;5.27;;;4.00;;
17725;SDS011;8983;53.156;17.960;2023-03-24T11:17:51;5.27;;;3.50;;
17725;SDS011;8983;53.156;17.960;2023-03-24T11:20:24;7.43;;;3.93;;
17725;SDS011;8983;53.156;17.960;2023-03-24T11:22:55;5.73;;;4.03;;
17725;SDS011;8983;53.156;17.960;2023-03-24T11:25:26;4.20;;;3.80;;
17725;SDS011;8983;53.156;17.960;2023-03-24T11:28:00;6.83;;;4.37;;
17725;SDS011;8983;53.156;17.960;2023-03-24T11:30:32;7.50;;;3.57;;
17725;SDS011;8983;53.156;17.960;2023-03-24T11:33:02;4.57;;;3.43;;
17725;SDS011;8983;53.156;17.960;2023-03-24T11:35:31;5.47;;;3.70;;
17725;SDS011;8983;53.156;17.960;2023-03-24T11:38:27;3.70;;;3.37;;
17725;SDS011;8983;53.156;17.960;2023-03-24T11:40:57;3.03;;;2.70;;
17725;SDS011;8983;53.156;17.960;2023-03-24T11:43:26;3.07;;;2.77;;
17725;SDS011;8983;53.156;17.960;2023-03-24T11:45:57;4.30;;;3.70;;
17725;SDS011;8983;53.156;17.960;2023-03-24T11:48:28;4.17;;;3.43;;
17725;SDS011;8983;53.156;17.960;2023-03-24T11:51:07;3.70;;;3.00;;
17725;SDS011;8983;53.156;17.960;2023-03-24T11:53:40;3.77;;;2.50;;
17725;SDS011;8983;53.156;17.960;2023-03-24T11:56:14;4.60;;;3.53;;
17725;SDS011;8983;53.156;17.960;2023-03-24T11:58:48;5.17;;;3.70;;
17725;SDS011;8983;53.156;17.960;2023-03-24T12:01:23;6.13;;;4.37;;
17725;SDS011;8983;53.156;17.960;2023-03-24T12:03:58;4.10;;;3.67;;
17725;SDS011;8983;53.156;17.960;2023-03-24T12:06:40;5.37;;;4.17;;
17725;SDS011;8983;53.156;17.960;2023-03-24T12:09:21;7.10;;;4.03;;
17725;SDS011;8983;53.156;17.960;2023-03-24T12:12:00;5.97;;;4.13;;
17725;SDS011;8983;53.156;17.960;2023-03-24T12:14:43;4.40;;;3.50;;
17725;SDS011;8983;53.156;17.960;2023-03-24T12:17:21;4.60;;;3.63;;
17725;SDS011;8983;53.156;17.960;2023-03-24T12:20:01;5.50;;;4.30;;
17725;SDS011;8983;53.156;17.960;2023-03-24T12:22:46;4.50;;;4.10;;
17725;SDS011;8983;53.156;17.960;2023-03-24T12:25:34;6.40;;;4.30;;
17725;SDS011;8983;53.156;17.960;2023-03-24T12:28:24;5.43;;;4.40;;
17725;SDS011;8983;53.156;17.960;2023-03-24T12:31:05;5.73;;;4.57;;
17725;SDS011;8983;53.156;17.960;2023-03-24T12:33:44;6.83;;;4.70;;
17725;SDS011;8983;53.156;17.960;2023-03-24T12:36:23;5.57;;;4.90;;
17725;SDS011;8983;53.156;17.960;2023-03-24T12:39:07;7.30;;;4.83;;
17725;SDS011;8983;53.156;17.960;2023-03-24T12:41:38;5.73;;;5.13;;
17725;SDS011;8983;53.156;17.960;2023-03-24T12:47:40;6.17;;;5.33;;
17725;SDS011;8983;53.156;17.960;2023-03-24T12:50:28;4.80;;;4.30;;
17725;SDS011;8983;53.156;17.960;2023-03-24T12:53:06;5.27;;;4.77;;
17725;SDS011;8983;53.156;17.960;2023-03-24T12:55:49;7.27;;;5.33;;
17725;SDS011;8983;53.156;17.960;2023-03-24T12:58:21;6.23;;;4.70;;
17725;SDS011;8983;53.156;17.960;2023-03-24T13:00:57;6.63;;;5.60;;
17725;SDS011;8983;53.156;17.960;2023-03-24T13:03:32;6.30;;;5.30;;
17725;SDS011;8983;53.156;17.960;2023-03-24T13:06:10;7.07;;;4.93;;
17725;SDS011;8983;53.156;17.960;2023-03-24T13:08:44;8.00;;;5.23;;
17725;SDS011;8983;53.156;17.960;2023-03-24T13:11:19;5.53;;;4.93;;
17725;SDS011;8983;53.156;17.960;2023-03-24T13:13:59;6.80;;;4.73;;
17725;SDS011;8983;53.156;17.960;2023-03-24T13:16:29;9.83;;;5.23;;
17725;SDS011;8983;53.156;17.960;2023-03-24T13:18:59;8.37;;;5.47;;
17725;SDS011;8983;53.156;17.960;2023-03-24T13:21:30;5.90;;;4.47;;
17725;SDS011;8983;53.156;17.960;2023-03-24T13:24:01;7.63;;;4.70;;
17725;SDS011;8983;53.156;17.960;2023-03-24T13:26:36;6.40;;;4.33;;
17725;SDS011;8983;53.156;17.960;2023-03-24T13:29:14;5.30;;;4.30;;
17725;SDS011;8983;53.156;17.960;2023-03-24T13:31:55;8.60;;;4.67;;
17725;SDS011;8983;53.156;17.960;2023-03-24T13:34:27;5.60;;;4.60;;
17725;SDS011;8983;53.156;17.960;2023-03-24T13:37:01;6.57;;;4.13;;
17725;SDS011;8983;53.156;17.960;2023-03-24T13:39:32;7.10;;;4.00;;
17725;SDS011;8983;53.156;17.960;2023-03-24T13:42:02;5.03;;;4.30;;
17725;SDS011;8983;53.156;17.960;2023-03-24T13:44:34;5.80;;;4.43;;
17725;SDS011;8983;53.156;17.960;2023-03-24T13:47:07;5.70;;;4.00;;
17725;SDS011;8983;53.156;17.960;2023-03-24T13:49:39;5.10;;;3.80;;
17725;SDS011;8983;53.156;17.960;2023-03-24T13:52:20;4.53;;;4.13;;
17725;SDS011;8983;53.156;17.960;2023-03-24T13:54:55;4.37;;;3.90;;
17725;SDS011;8983;53.156;17.960;2023-03-24T13:57:25;4.13;;;3.73;;
17725;SDS011;8983;53.156;17.960;2023-03-24T14:00:00;5.17;;;4.27;;
17725;SDS011;8983;53.156;17.960;2023-03-24T14:02:41;4.43;;;3.77;;
17725;SDS011;8983;53.156;17.960;2023-03-24T14:05:28;3.33;;;2.87;;
17725;SDS011;8983;53.156;17.960;2023-03-24T14:08:12;5.33;;;3.70;;
17725;SDS011;8983;53.156;17.960;2023-03-24T14:10:43;5.53;;;3.90;;
17725;SDS011;8983;53.156;17.960;2023-03-24T14:13:17;6.43;;;3.40;;
17725;SDS011;8983;53.156;17.960;2023-03-24T14:15:50;5.70;;;4.20;;
17725;SDS011;8983;53.156;17.960;2023-03-24T14:21:06;4.60;;;3.70;;
17725;SDS011;8983;53.156;17.960;2023-03-24T14:23:37;3.97;;;3.57;;
17725;SDS011;8983;53.156;17.960;2023-03-24T14:26:07;4.30;;;2.80;;
17725;SDS011;8983;53.156;17.960;2023-03-24T14:28:40;4.57;;;3.30;;
17725;SDS011;8983;53.156;17.960;2023-03-24T14:31:15;3.57;;;3.13;;
17725;SDS011;8983;53.156;17.960;2023-03-24T14:33:57;4.43;;;3.13;;
17725;SDS011;8983;53.156;17.960;2023-03-24T14:36:37;5.17;;;3.20;;
17725;SDS011;8983;53.156;17.960;2023-03-24T14:39:25;3.10;;;2.80;;
17725;SDS011;8983;53.156;17.960;2023-03-24T14:41:58;3.20;;;3.00;;
17725;SDS011;8983;53.156;17.960;2023-03-24T14:47:23;3.60;;;3.30;;
17725;SDS011;8983;53.156;17.960;2023-03-24T14:49:55;6.03;;;3.37;;
17725;SDS011;8983;53.156;17.960;2023-03-24T14:52:25;4.40;;;3.20;;
17725;SDS011;8983;53.156;17.960;2023-03-24T14:54:59;4.20;;;3.17;;
17725;SDS011;8983;53.156;17.960;2023-03-24T14:57:33;4.00;;;3.00;;
17725;SDS011;8983;53.156;17.960;2023-03-24T15:00:06;5.17;;;4.17;;
17725;SDS011;8983;53.156;17.960;2023-03-24T15:02:42;3.67;;;3.20;;
17725;SDS011;8983;53.156;17.960;2023-03-24T15:05:14;3.60;;;3.30;;
17725;SDS011;8983;53.156;17.960;2023-03-24T15:07:57;3.80;;;2.90;;
17725;SDS011;8983;53.156;17.960;2023-03-24T15:10:38;7.13;;;5.00;;
17725;SDS011;8983;53.156;17.960;2023-03-24T15:13:27;4.83;;;3.27;;
17725;SDS011;8983;53.156;17.960;2023-03-24T15:15:57;4.50;;;3.63;;
17725;SDS011;8983;53.156;17.960;2023-03-24T15:18:27;3.20;;;2.90;;
17725;SDS011;8983;53.156;17.960;2023-03-24T15:20:55;3.70;;;3.07;;
17725;SDS011;8983;53.156;17.960;2023-03-24T15:23:24;3.43;;;2.87;;
17725;SDS011;8983;53.156;17.960;2023-03-24T15:25:55;3.43;;;2.90;;